sensor_id;sensor_type;location;lat;lon;timestamp;P1;durP1;ratioP1;P2;durP2;ratioP2
41897;SDS011;27576;53.366;-1.498;2024-01-30T00:00:53;54.92;;;32.83;;
41897;SDS011;27576;53.366;-1.498;2024-01-30T00:03:19;47.47;;;30.42;;
41897;SDS011;27576;53.366;-1.498;2024-01-30T00:05:44;52.47;;;31.33;;
41897;SDS011;27576;53.366;-1.498;2024-01-30T00:08:10;51.38;;;29.92;;
41897;SDS011;27576;53.366;-1.498;2024-01-30T00:10:35;53.35;;;30.83;;
41897;SDS011;27576;53.366;-1.498;2024-01-30T00:13:01;52.75;;;29.27;;
41897;SDS011;27576;53.366;-1.498;2024-01-30T00:15:27;51.78;;;27.92;;
41897;SDS011;27576;53.366;-1.498;2024-01-30T00:17:53;58.17;;;29.67;;
41897;SDS011;27576;53.366;-1.498;2024-01-30T00:20:18;54.58;;;29.27;;
41897;SDS011;27576;53.366;-1.498;2024-01-30T00:22:44;56.25;;;30.15;;
41897;SDS011;27576;53.366;-1.498;2024-01-30T00:25:09;53.70;;;28.25;;
41897;SDS011;27576;53.366;-1.498;2024-01-30T00:27:35;49.97;;;27.75;;
41897;SDS011;27576;53.366;-1.498;2024-01-30T00:30:00;49.88;;;27.80;;
41897;SDS011;27576;53.366;-1.498;2024-01-30T00:32:25;55.67;;;29.27;;
41897;SDS011;27576;53.366;-1.498;2024-01-30T00:34:51;56.65;;;28.63;;
41897;SDS011;27576;53.366;-1.498;2024-01-30T00:37:16;47.60;;;25.98;;
41897;SDS011;27576;53.366;-1.498;2024-01-30T00:39:41;45.38;;;27.25;;
41897;SDS011;27576;53.366;-1.498;2024-01-30T00:42:07;51.08;;;29.33;;
41897;SDS011;27576;53.366;-1.498;2024-01-30T00:44:34;49.83;;;28.52;;
41897;SDS011;27576;53.366;-1.498;2024-01-30T00:47:02;58.72;;;30.50;;
41897;SDS011;27576;53.366;-1.498;2024-01-30T00:49:28;49.72;;;29.80;;
41897;SDS011;27576;53.366;-1.498;2024-01-30T00:51:53;47.88;;;27.70;;
41897;SDS011;27576;53.366;-1.498;2024-01-30T00:54:18;49.42;;;29.45;;
41897;SDS011;27576;53.366;-1.498;2024-01-30T00:56:44;53.65;;;29.35;;
41897;SDS011;27576;53.366;-1.498;2024-01-30T00:59:11;54.90;;;28.85;;
41897;SDS011;27576;53.366;-1.498;2024-01-30T01:01:36;58.85;;;30.02;;
41897;SDS011;27576;53.366;-1.498;2024-01-30T01:04:02;47.03;;;25.58;;
41897;SDS011;27576;53.366;-1.498;2024-01-30T01:06:27;55.90;;;28.02;;
41897;SDS011;27576;53.366;-1.498;2024-01-30T01:08:52;48.72;;;27.35;;
41897;SDS011;27576;53.366;-1.498;2024-01-30T01:11:18;48.42;;;26.20;;
41897;SDS011;27576;53.366;-1.498;2024-01-30T01:13:43;58.63;;;28.00;;
41897;SDS011;27576;53.366;-1.498;2024-01-30T01:16:09;51.25;;;26.67;;
41897;SDS011;27576;53.366;-1.498;2024-01-30T01:18:34;41.92;;;26.55;;
41897;SDS011;27576;53.366;-1.498;2024-01-30T01:20:59;50.53;;;27.42;;
41897;SDS011;27576;53.366;-1.498;2024-01-30T01:23:25;69.30;;;31.52;;
41897;SDS011;27576;53.366;-1.498;2024-01-30T01:25:51;53.13;;;25.50;;
41897;SDS011;27576;53.366;-1.498;2024-01-30T01:28:16;55.13;;;28.23;;
41897;SDS011;27576;53.366;-1.498;2024-01-30T01:30:42;47.15;;;25.38;;
41897;SDS011;27576;53.366;-1.498;2024-01-30T01:33:07;49.08;;;25.63;;
41897;SDS011;27576;53.366;-1.498;2024-01-30T01:35:34;52.28;;;25.02;;
41897;SDS011;27576;53.366;-1.498;2024-01-30T01:37:59;59.33;;;27.65;;
41897;SDS011;27576;53.366;-1.498;2024-01-30T01:40:25;50.90;;;27.75;;
41897;SDS011;27576;53.366;-1.498;2024-01-30T01:42:52;60.85;;;28.02;;
41897;SDS011;27576;53.366;-1.498;2024-01-30T01:45:19;42.10;;;24.88;;
41897;SDS011;27576;53.366;-1.498;2024-01-30T01:47:46;50.08;;;25.02;;
41897;SDS011;27576;53.366;-1.498;2024-01-30T01:50:15;44.40;;;25.10;;
41897;SDS011;27576;53.366;-1.498;2024-01-30T01:52:45;63.92;;;28.02;;
41897;SDS011;27576;53.366;-1.498;2024-01-30T01:55:12;45.03;;;26.02;;
41897;SDS011;27576;53.366;-1.498;2024-01-30T01:57:39;47.63;;;26.60;;
41897;SDS011;27576;53.366;-1.498;2024-01-30T02:00:05;57.40;;;27.73;;
41897;SDS011;27576;53.366;-1.498;2024-01-30T02:02:32;45.85;;;25.95;;
41897;SDS011;27576;53.366;-1.498;2024-01-30T02:05:00;54.47;;;29.35;;
41897;SDS011;27576;53.366;-1.498;2024-01-30T02:07:26;39.78;;;23.55;;
41897;SDS011;27576;53.366;-1.498;2024-01-30T02:09:53;39.55;;;24.38;;
41897;SDS011;27576;53.366;-1.498;2024-01-30T02:12:18;49.75;;;24.67;;
41897;SDS011;27576;53.366;-1.498;2024-01-30T02:14:45;36.60;;;21.88;;
41897;SDS011;27576;53.366;-1.498;2024-01-30T02:17:11;37.38;;;21.88;;
41897;SDS011;27576;53.366;-1.498;2024-01-30T02:19:37;45.80;;;22.67;;
41897;SDS011;27576;53.366;-1.498;2024-01-30T02:22:02;38.67;;;22.23;;
41897;SDS011;27576;53.366;-1.498;2024-01-30T02:24:28;23.38;;;14.20;;
41897;SDS011;27576;53.366;-1.498;2024-01-30T02:26:53;11.25;;;7.45;;
41897;SDS011;27576;53.366;-1.498;2024-01-30T02:29:19;11.63;;;7.50;;
41897;SDS011;27576;53.366;-1.498;2024-01-30T02:31:44;8.80;;;5.55;;
41897;SDS011;27576;53.366;-1.498;2024-01-30T02:34:11;5.10;;;3.67;;
41897;SDS011;27576;53.366;-1.498;2024-01-30T02:36:36;4.40;;;3.42;;
41897;SDS011;27576;53.366;-1.498;2024-01-30T02:39:02;3.40;;;3.10;;
41897;SDS011;27576;53.366;-1.498;2024-01-30T02:41:28;3.03;;;2.78;;
41897;SDS011;27576;53.366;-1.498;2024-01-30T02:43:53;3.03;;;2.72;;
41897;SDS011;27576;53.366;-1.498;2024-01-30T02:46:19;3.78;;;3.35;;
41897;SDS011;27576;53.366;-1.498;2024-01-30T02:48:44;7.00;;;3.85;;
41897;SDS011;27576;53.366;-1.498;2024-01-30T02:51:09;3.90;;;3.55;;
41897;SDS011;27576;53.366;-1.498;2024-01-30T02:53:35;3.55;;;3.28;;
41897;SDS011;27576;53.366;-1.498;2024-01-30T02:56:02;3.80;;;3.50;;
41897;SDS011;27576;53.366;-1.498;2024-01-30T02:58:28;4.18;;;3.78;;
41897;SDS011;27576;53.366;-1.498;2024-01-30T03:00:53;3.83;;;3.53;;
41897;SDS011;27576;53.366;-1.498;2024-01-30T03:03:18;3.80;;;3.50;;
41897;SDS011;27576;53.366;-1.498;2024-01-30T03:05:44;3.78;;;3.47;;
41897;SDS011;27576;53.366;-1.498;2024-01-30T03:08:09;3.95;;;3.65;;
41897;SDS011;27576;53.366;-1.498;2024-01-30T03:10:35;2.70;;;2.50;;
41897;SDS011;27576;53.366;-1.498;2024-01-30T03:13:00;3.10;;;2.90;;
41897;SDS011;27576;53.366;-1.498;2024-01-30T03:15:26;3.20;;;2.97;;
41897;SDS011;27576;53.366;-1.498;2024-01-30T03:17:52;2.90;;;2.70;;
41897;SDS011;27576;53.366;-1.498;2024-01-30T03:20:18;2.92;;;2.67;;
41897;SDS011;27576;53.366;-1.498;2024-01-30T03:22:43;2.85;;;2.65;;
41897;SDS011;27576;53.366;-1.498;2024-01-30T03:25:09;2.70;;;2.50;;
41897;SDS011;27576;53.366;-1.498;2024-01-30T03:27:34;2.63;;;2.42;;
41897;SDS011;27576;53.366;-1.498;2024-01-30T03:29:59;2.10;;;1.90;;
41897;SDS011;27576;53.366;-1.498;2024-01-30T03:32:25;1.80;;;1.70;;
41897;SDS011;27576;53.366;-1.498;2024-01-30T03:34:50;1.77;;;1.33;;
41897;SDS011;27576;53.366;-1.498;2024-01-30T03:37:16;1.50;;;1.40;;
41897;SDS011;27576;53.366;-1.498;2024-01-30T03:39:41;1.00;;;1.00;;
41897;SDS011;27576;53.366;-1.498;2024-01-30T03:42:06;1.02;;;1.00;;
41897;SDS011;27576;53.366;-1.498;2024-01-30T03:44:32;1.00;;;1.00;;
41897;SDS011;27576;53.366;-1.498;2024-01-30T03:46:57;0.90;;;0.90;;
41897;SDS011;27576;53.366;-1.498;2024-01-30T03:49:23;1.30;;;1.20;;
41897;SDS011;27576;53.366;-1.498;2024-01-30T03:51:48;1.20;;;1.10;;
41897;SDS011;27576;53.366;-1.498;2024-01-30T03:54:13;0.95;;;0.95;;
41897;SDS011;27576;53.366;-1.498;2024-01-30T03:56:39;1.60;;;1.50;;
41897;SDS011;27576;53.366;-1.498;2024-01-30T03:59:05;0.95;;;0.95;;
41897;SDS011;27576;53.366;-1.498;2024-01-30T04:01:31;1.35;;;1.25;;
41897;SDS011;27576;53.366;-1.498;2024-01-30T04:03:56;0.80;;;0.80;;
41897;SDS011;27576;53.366;-1.498;2024-01-30T04:06:22;0.93;;;0.90;;
41897;SDS011;27576;53.366;-1.498;2024-01-30T04:08:47;0.77;;;0.77;;
41897;SDS011;27576;53.366;-1.498;2024-01-30T04:11:12;1.02;;;1.02;;
41897;SDS011;27576;53.366;-1.498;2024-01-30T04:13:38;1.00;;;1.00;;
41897;SDS011;27576;53.366;-1.498;2024-01-30T04:16:03;1.98;;;1.00;;
41897;SDS011;27576;53.366;-1.498;2024-01-30T04:18:29;1.00;;;1.00;;
41897;SDS011;27576;53.366;-1.498;2024-01-30T04:20:55;0.80;;;0.80;;
41897;SDS011;27576;53.366;-1.498;2024-01-30T04:23:20;1.08;;;1.08;;
41897;SDS011;27576;53.366;-1.498;2024-01-30T04:25:46;1.20;;;1.20;;
41897;SDS011;27576;53.366;-1.498;2024-01-30T04:28:11;1.25;;;1.15;;
41897;SDS011;27576;53.366;-1.498;2024-01-30T04:30:37;1.00;;;1.00;;
41897;SDS011;27576;53.366;-1.498;2024-01-30T04:33:03;0.98;;;0.98;;
41897;SDS011;27576;53.366;-1.498;2024-01-30T04:35:29;1.20;;;1.10;;
41897;SDS011;27576;53.366;-1.498;2024-01-30T04:37:54;1.40;;;1.30;;
41897;SDS011;27576;53.366;-1.498;2024-01-30T04:40:20;1.40;;;1.30;;
41897;SDS011;27576;53.366;-1.498;2024-01-30T04:42:46;1.58;;;1.48;;
41897;SDS011;27576;53.366;-1.498;2024-01-30T04:45:11;1.65;;;1.55;;
41897;SDS011;27576;53.366;-1.498;2024-01-30T04:47:37;1.85;;;1.75;;
41897;SDS011;27576;53.366;-1.498;2024-01-30T04:50:03;2.05;;;1.80;;
41897;SDS011;27576;53.366;-1.498;2024-01-30T04:52:31;3.25;;;1.88;;
41897;SDS011;27576;53.366;-1.498;2024-01-30T04:54:56;3.22;;;1.80;;
41897;SDS011;27576;53.366;-1.498;2024-01-30T04:57:22;1.60;;;1.50;;
41897;SDS011;27576;53.366;-1.498;2024-01-30T04:59:47;1.50;;;1.40;;
41897;SDS011;27576;53.366;-1.498;2024-01-30T05:02:13;1.40;;;1.30;;
41897;SDS011;27576;53.366;-1.498;2024-01-30T05:04:38;1.50;;;1.30;;
41897;SDS011;27576;53.366;-1.498;2024-01-30T05:07:06;1.90;;;1.60;;
41897;SDS011;27576;53.366;-1.498;2024-01-30T05:09:31;1.60;;;1.50;;
41897;SDS011;27576;53.366;-1.498;2024-01-30T05:11:56;1.60;;;1.50;;
41897;SDS011;27576;53.366;-1.498;2024-01-30T05:14:23;1.77;;;1.67;;
41897;SDS011;27576;53.366;-1.498;2024-01-30T05:16:48;2.10;;;1.90;;
41897;SDS011;27576;53.366;-1.498;2024-01-30T05:19:14;2.75;;;1.83;;
41897;SDS011;27576;53.366;-1.498;2024-01-30T05:21:41;2.10;;;1.90;;
41897;SDS011;27576;53.366;-1.498;2024-01-30T05:24:06;2.22;;;1.80;;
41897;SDS011;27576;53.366;-1.498;2024-01-30T05:26:32;2.40;;;1.85;;
41897;SDS011;27576;53.366;-1.498;2024-01-30T05:28:57;2.20;;;2.00;;
41897;SDS011;27576;53.366;-1.498;2024-01-30T05:31:23;2.42;;;2.22;;
41897;SDS011;27576;53.366;-1.498;2024-01-30T05:33:51;2.47;;;2.10;;
41897;SDS011;27576;53.366;-1.498;2024-01-30T05:36:16;2.70;;;2.50;;
41897;SDS011;27576;53.366;-1.498;2024-01-30T05:38:42;2.03;;;1.92;;
41897;SDS011;27576;53.366;-1.498;2024-01-30T05:41:07;2.70;;;2.50;;
41897;SDS011;27576;53.366;-1.498;2024-01-30T05:43:33;2.55;;;2.03;;
41897;SDS011;27576;53.366;-1.498;2024-01-30T05:45:58;1.83;;;1.70;;
41897;SDS011;27576;53.366;-1.498;2024-01-30T05:48:24;2.25;;;2.10;;
41897;SDS011;27576;53.366;-1.498;2024-01-30T05:50:49;1.65;;;1.55;;
41897;SDS011;27576;53.366;-1.498;2024-01-30T05:53:15;1.67;;;1.58;;
41897;SDS011;27576;53.366;-1.498;2024-01-30T05:55:40;1.80;;;1.70;;
41897;SDS011;27576;53.366;-1.498;2024-01-30T05:58:06;1.67;;;1.55;;
41897;SDS011;27576;53.366;-1.498;2024-01-30T06:00:31;1.60;;;1.50;;
41897;SDS011;27576;53.366;-1.498;2024-01-30T06:02:56;1.70;;;1.60;;
41897;SDS011;27576;53.366;-1.498;2024-01-30T06:05:22;1.75;;;1.65;;
41897;SDS011;27576;53.366;-1.498;2024-01-30T06:07:47;1.98;;;1.85;;
41897;SDS011;27576;53.366;-1.498;2024-01-30T06:10:13;1.98;;;1.83;;
41897;SDS011;27576;53.366;-1.498;2024-01-30T06:12:38;1.60;;;1.50;;
41897;SDS011;27576;53.366;-1.498;2024-01-30T06:15:05;1.30;;;1.20;;
41897;SDS011;27576;53.366;-1.498;2024-01-30T06:17:31;0.95;;;0.95;;
41897;SDS011;27576;53.366;-1.498;2024-01-30T06:19:57;1.20;;;1.10;;
41897;SDS011;27576;53.366;-1.498;2024-01-30T06:22:23;1.13;;;1.02;;
41897;SDS011;27576;53.366;-1.498;2024-01-30T06:24:48;1.10;;;1.10;;
41897;SDS011;27576;53.366;-1.498;2024-01-30T06:27:14;1.00;;;1.00;;
41897;SDS011;27576;53.366;-1.498;2024-01-30T06:29:40;1.15;;;1.10;;
41897;SDS011;27576;53.366;-1.498;2024-01-30T06:32:06;1.25;;;1.02;;
41897;SDS011;27576;53.366;-1.498;2024-01-30T06:34:31;1.00;;;1.00;;
41897;SDS011;27576;53.366;-1.498;2024-01-30T06:36:57;1.10;;;1.00;;
41897;SDS011;27576;53.366;-1.498;2024-01-30T06:39:22;1.10;;;1.10;;
41897;SDS011;27576;53.366;-1.498;2024-01-30T06:41:48;1.38;;;1.27;;
41897;SDS011;27576;53.366;-1.498;2024-01-30T06:44:13;1.00;;;1.00;;
41897;SDS011;27576;53.366;-1.498;2024-01-30T06:46:39;1.10;;;1.00;;
41897;SDS011;27576;53.366;-1.498;2024-01-30T06:49:04;0.90;;;0.85;;
41897;SDS011;27576;53.366;-1.498;2024-01-30T06:51:30;0.90;;;0.90;;
41897;SDS011;27576;53.366;-1.498;2024-01-30T06:53:55;0.80;;;0.80;;
41897;SDS011;27576;53.366;-1.498;2024-01-30T06:56:21;1.10;;;1.05;;
41897;SDS011;27576;53.366;-1.498;2024-01-30T06:58:47;0.90;;;0.90;;
41897;SDS011;27576;53.366;-1.498;2024-01-30T07:01:13;0.90;;;0.90;;
41897;SDS011;27576;53.366;-1.498;2024-01-30T07:03:39;2.28;;;0.80;;
41897;SDS011;27576;53.366;-1.498;2024-01-30T07:06:04;1.00;;;1.00;;
41897;SDS011;27576;53.366;-1.498;2024-01-30T07:08:30;0.98;;;0.98;;
41897;SDS011;27576;53.366;-1.498;2024-01-30T07:10:55;0.70;;;0.70;;
41897;SDS011;27576;53.366;-1.498;2024-01-30T07:13:21;0.63;;;0.63;;
41897;SDS011;27576;53.366;-1.498;2024-01-30T07:15:46;0.82;;;0.82;;
41897;SDS011;27576;53.366;-1.498;2024-01-30T07:18:12;1.05;;;1.00;;
41897;SDS011;27576;53.366;-1.498;2024-01-30T07:20:38;1.02;;;0.88;;
41897;SDS011;27576;53.366;-1.498;2024-01-30T07:23:11;0.95;;;0.95;;
41897;SDS011;27576;53.366;-1.498;2024-01-30T07:25:41;2.40;;;0.90;;
41897;SDS011;27576;53.366;-1.498;2024-01-30T07:28:09;0.98;;;0.98;;
41897;SDS011;27576;53.366;-1.498;2024-01-30T07:30:35;0.90;;;0.90;;
41897;SDS011;27576;53.366;-1.498;2024-01-30T07:33:01;1.25;;;1.15;;
41897;SDS011;27576;53.366;-1.498;2024-01-30T07:35:26;0.95;;;0.95;;
41897;SDS011;27576;53.366;-1.498;2024-01-30T07:37:52;1.13;;;1.00;;
41897;SDS011;27576;53.366;-1.498;2024-01-30T07:40:17;1.17;;;1.17;;
41897;SDS011;27576;53.366;-1.498;2024-01-30T07:42:43;1.10;;;1.10;;
41897;SDS011;27576;53.366;-1.498;2024-01-30T07:45:08;1.38;;;1.17;;
41897;SDS011;27576;53.366;-1.498;2024-01-30T07:47:34;1.38;;;1.17;;
41897;SDS011;27576;53.366;-1.498;2024-01-30T07:49:59;1.85;;;1.23;;
41897;SDS011;27576;53.366;-1.498;2024-01-30T07:52:25;1.30;;;1.27;;
41897;SDS011;27576;53.366;-1.498;2024-01-30T07:54:50;1.52;;;1.20;;
41897;SDS011;27576;53.366;-1.498;2024-01-30T07:57:18;1.42;;;1.30;;
41897;SDS011;27576;53.366;-1.498;2024-01-30T07:59:43;1.40;;;1.30;;
41897;SDS011;27576;53.366;-1.498;2024-01-30T08:02:09;1.00;;;1.00;;
41897;SDS011;27576;53.366;-1.498;2024-01-30T08:04:35;2.35;;;1.20;;
41897;SDS011;27576;53.366;-1.498;2024-01-30T08:07:00;2.92;;;1.50;;
41897;SDS011;27576;53.366;-1.498;2024-01-30T08:09:26;1.58;;;1.48;;
41897;SDS011;27576;53.366;-1.498;2024-01-30T08:11:52;3.63;;;1.50;;
41897;SDS011;27576;53.366;-1.498;2024-01-30T08:14:17;1.63;;;1.52;;
41897;SDS011;27576;53.366;-1.498;2024-01-30T08:16:43;1.40;;;1.33;;
41897;SDS011;27576;53.366;-1.498;2024-01-30T08:19:09;1.60;;;1.50;;
41897;SDS011;27576;53.366;-1.498;2024-01-30T08:21:34;1.40;;;1.38;;
41897;SDS011;27576;53.366;-1.498;2024-01-30T08:24:04;1.52;;;1.42;;
41897;SDS011;27576;53.366;-1.498;2024-01-30T08:28:56;1.92;;;1.42;;
41897;SDS011;27576;53.366;-1.498;2024-01-30T08:31:22;1.35;;;1.25;;
41897;SDS011;27576;53.366;-1.498;2024-01-30T08:33:47;1.52;;;1.42;;
41897;SDS011;27576;53.366;-1.498;2024-01-30T08:36:13;1.92;;;1.75;;
41897;SDS011;27576;53.366;-1.498;2024-01-30T08:38:39;1.70;;;1.60;;
41897;SDS011;27576;53.366;-1.498;2024-01-30T08:41:04;27.25;;;3.60;;
41897;SDS011;27576;53.366;-1.498;2024-01-30T08:43:30;11.15;;;2.80;;
41897;SDS011;27576;53.366;-1.498;2024-01-30T08:45:55;11.27;;;2.50;;
41897;SDS011;27576;53.366;-1.498;2024-01-30T08:48:24;3.78;;;1.90;;
41897;SDS011;27576;53.366;-1.498;2024-01-30T08:50:50;1.55;;;1.45;;
41897;SDS011;27576;53.366;-1.498;2024-01-30T08:53:16;1.95;;;1.80;;
41897;SDS011;27576;53.366;-1.498;2024-01-30T08:55:41;3.15;;;1.65;;
41897;SDS011;27576;53.366;-1.498;2024-01-30T08:58:06;4.22;;;2.17;;
41897;SDS011;27576;53.366;-1.498;2024-01-30T09:00:32;1.40;;;1.30;;
41897;SDS011;27576;53.366;-1.498;2024-01-30T09:02:58;2.50;;;2.30;;
41897;SDS011;27576;53.366;-1.498;2024-01-30T09:05:23;1.42;;;1.33;;
41897;SDS011;27576;53.366;-1.498;2024-01-30T09:07:49;1.17;;;1.13;;
41897;SDS011;27576;53.366;-1.498;2024-01-30T09:10:14;1.10;;;1.10;;
41897;SDS011;27576;53.366;-1.498;2024-01-30T09:12:40;0.90;;;0.90;;
41897;SDS011;27576;53.366;-1.498;2024-01-30T09:15:06;12.05;;;1.70;;
41897;SDS011;27576;53.366;-1.498;2024-01-30T09:17:32;5.72;;;1.27;;
41897;SDS011;27576;53.366;-1.498;2024-01-30T09:19:58;1.95;;;1.20;;
41897;SDS011;27576;53.366;-1.498;2024-01-30T09:22:23;2.35;;;1.08;;
41897;SDS011;27576;53.366;-1.498;2024-01-30T09:24:49;0.82;;;0.82;;
41897;SDS011;27576;53.366;-1.498;2024-01-30T09:27:14;1.13;;;1.02;;
41897;SDS011;27576;53.366;-1.498;2024-01-30T09:29:40;1.10;;;1.10;;
41897;SDS011;27576;53.366;-1.498;2024-01-30T09:32:05;0.88;;;0.88;;
41897;SDS011;27576;53.366;-1.498;2024-01-30T09:34:31;1.10;;;0.80;;
41897;SDS011;27576;53.366;-1.498;2024-01-30T09:36:58;0.98;;;0.98;;
41897;SDS011;27576;53.366;-1.498;2024-01-30T09:39:26;0.98;;;0.90;;
41897;SDS011;27576;53.366;-1.498;2024-01-30T09:41:55;0.90;;;0.90;;
41897;SDS011;27576;53.366;-1.498;2024-01-30T09:44:22;0.90;;;0.90;;
41897;SDS011;27576;53.366;-1.498;2024-01-30T09:46:49;1.15;;;1.05;;
41897;SDS011;27576;53.366;-1.498;2024-01-30T09:49:16;1.02;;;1.02;;
41897;SDS011;27576;53.366;-1.498;2024-01-30T09:51:43;1.08;;;0.98;;
41897;SDS011;27576;53.366;-1.498;2024-01-30T09:54:10;1.05;;;1.00;;
41897;SDS011;27576;53.366;-1.498;2024-01-30T09:56:39;0.90;;;0.90;;
41897;SDS011;27576;53.366;-1.498;2024-01-30T09:59:04;0.90;;;0.90;;
41897;SDS011;27576;53.366;-1.498;2024-01-30T10:01:29;0.80;;;0.80;;
41897;SDS011;27576;53.366;-1.498;2024-01-30T10:03:56;0.90;;;0.90;;
41897;SDS011;27576;53.366;-1.498;2024-01-30T10:06:21;0.80;;;0.80;;
41897;SDS011;27576;53.366;-1.498;2024-01-30T10:08:49;0.70;;;0.70;;
41897;SDS011;27576;53.366;-1.498;2024-01-30T10:11:15;0.85;;;0.85;;
41897;SDS011;27576;53.366;-1.498;2024-01-30T10:13:40;1.13;;;0.90;;
41897;SDS011;27576;53.366;-1.498;2024-01-30T10:16:06;0.90;;;0.90;;
41897;SDS011;27576;53.366;-1.498;2024-01-30T10:18:32;0.90;;;0.90;;
41897;SDS011;27576;53.366;-1.498;2024-01-30T10:20:58;0.90;;;0.90;;
41897;SDS011;27576;53.366;-1.498;2024-01-30T10:23:24;0.80;;;0.80;;
41897;SDS011;27576;53.366;-1.498;2024-01-30T10:25:51;1.00;;;1.00;;
41897;SDS011;27576;53.366;-1.498;2024-01-30T10:28:17;0.90;;;0.90;;
41897;SDS011;27576;53.366;-1.498;2024-01-30T10:30:42;1.85;;;1.10;;
41897;SDS011;27576;53.366;-1.498;2024-01-30T10:33:08;1.10;;;1.10;;
41897;SDS011;27576;53.366;-1.498;2024-01-30T10:35:34;1.05;;;1.05;;
41897;SDS011;27576;53.366;-1.498;2024-01-30T10:38:00;1.30;;;1.20;;
41897;SDS011;27576;53.366;-1.498;2024-01-30T10:40:28;1.35;;;1.25;;
41897;SDS011;27576;53.366;-1.498;2024-01-30T10:42:55;1.10;;;1.10;;
41897;SDS011;27576;53.366;-1.498;2024-01-30T10:45:21;3.05;;;1.70;;
41897;SDS011;27576;53.366;-1.498;2024-01-30T10:47:50;2.92;;;2.30;;
41897;SDS011;27576;53.366;-1.498;2024-01-30T10:50:19;2.05;;;1.80;;
41897;SDS011;27576;53.366;-1.498;2024-01-30T10:52:45;4.13;;;2.05;;
41897;SDS011;27576;53.366;-1.498;2024-01-30T10:55:12;2.10;;;1.90;;
41897;SDS011;27576;53.366;-1.498;2024-01-30T10:57:40;3.20;;;1.70;;
41897;SDS011;27576;53.366;-1.498;2024-01-30T11:00:08;1.85;;;1.70;;
41897;SDS011;27576;53.366;-1.498;2024-01-30T11:02:41;1.80;;;1.70;;
41897;SDS011;27576;53.366;-1.498;2024-01-30T11:05:08;1.90;;;1.05;;
41897;SDS011;27576;53.366;-1.498;2024-01-30T11:07:34;2.47;;;2.28;;
41897;SDS011;27576;53.366;-1.498;2024-01-30T11:10:01;1.85;;;1.75;;
41897;SDS011;27576;53.366;-1.498;2024-01-30T11:12:29;2.10;;;1.70;;
41897;SDS011;27576;53.366;-1.498;2024-01-30T11:15:01;1.80;;;1.70;;
41897;SDS011;27576;53.366;-1.498;2024-01-30T11:17:39;1.75;;;1.65;;
41897;SDS011;27576;53.366;-1.498;2024-01-30T11:20:09;1.58;;;1.48;;
41897;SDS011;27576;53.366;-1.498;2024-01-30T11:22:35;1.58;;;1.48;;
41897;SDS011;27576;53.366;-1.498;2024-01-30T11:25:01;1.30;;;1.20;;
41897;SDS011;27576;53.366;-1.498;2024-01-30T11:27:28;1.20;;;1.20;;
41897;SDS011;27576;53.366;-1.498;2024-01-30T11:30:00;1.40;;;1.30;;
41897;SDS011;27576;53.366;-1.498;2024-01-30T11:32:27;1.15;;;1.05;;
41897;SDS011;27576;53.366;-1.498;2024-01-30T11:34:53;3.60;;;1.08;;
41897;SDS011;27576;53.366;-1.498;2024-01-30T11:37:19;1.20;;;1.10;;
41897;SDS011;27576;53.366;-1.498;2024-01-30T11:39:46;1.30;;;1.20;;
41897;SDS011;27576;53.366;-1.498;2024-01-30T11:42:13;1.23;;;1.20;;
41897;SDS011;27576;53.366;-1.498;2024-01-30T11:44:39;1.30;;;1.20;;
41897;SDS011;27576;53.366;-1.498;2024-01-30T11:47:05;1.08;;;0.98;;
41897;SDS011;27576;53.366;-1.498;2024-01-30T11:49:30;1.00;;;1.00;;
41897;SDS011;27576;53.366;-1.498;2024-01-30T11:51:56;1.00;;;1.00;;
41897;SDS011;27576;53.366;-1.498;2024-01-30T11:54:21;1.58;;;1.40;;
41897;SDS011;27576;53.366;-1.498;2024-01-30T11:56:47;0.80;;;0.80;;
41897;SDS011;27576;53.366;-1.498;2024-01-30T11:59:13;1.25;;;1.15;;
41897;SDS011;27576;53.366;-1.498;2024-01-30T12:01:39;1.40;;;1.30;;
41897;SDS011;27576;53.366;-1.498;2024-01-30T12:04:04;1.67;;;1.30;;
41897;SDS011;27576;53.366;-1.498;2024-01-30T12:06:34;1.10;;;1.00;;
41897;SDS011;27576;53.366;-1.498;2024-01-30T12:08:59;1.25;;;1.15;;
41897;SDS011;27576;53.366;-1.498;2024-01-30T12:11:28;1.52;;;1.42;;
41897;SDS011;27576;53.366;-1.498;2024-01-30T12:13:55;1.48;;;1.38;;
41897;SDS011;27576;53.366;-1.498;2024-01-30T12:16:21;2.95;;;1.13;;
41897;SDS011;27576;53.366;-1.498;2024-01-30T12:18:47;2.55;;;1.10;;
41897;SDS011;27576;53.366;-1.498;2024-01-30T12:21:15;1.40;;;1.30;;
41897;SDS011;27576;53.366;-1.498;2024-01-30T12:23:42;2.28;;;1.20;;
41897;SDS011;27576;53.366;-1.498;2024-01-30T12:26:08;1.98;;;1.30;;
41897;SDS011;27576;53.366;-1.498;2024-01-30T12:28:33;1.00;;;1.00;;
41897;SDS011;27576;53.366;-1.498;2024-01-30T12:31:04;1.15;;;0.98;;
41897;SDS011;27576;53.366;-1.498;2024-01-30T12:33:30;1.00;;;1.00;;
41897;SDS011;27576;53.366;-1.498;2024-01-30T12:35:56;0.95;;;0.90;;
41897;SDS011;27576;53.366;-1.498;2024-01-30T12:38:22;1.02;;;0.93;;
41897;SDS011;27576;53.366;-1.498;2024-01-30T12:40:49;1.00;;;1.00;;
41897;SDS011;27576;53.366;-1.498;2024-01-30T12:43:19;1.85;;;1.27;;
41897;SDS011;27576;53.366;-1.498;2024-01-30T12:45:44;1.25;;;1.15;;
41897;SDS011;27576;53.366;-1.498;2024-01-30T12:48:10;1.02;;;0.95;;
41897;SDS011;27576;53.366;-1.498;2024-01-30T12:50:35;1.70;;;0.90;;
41897;SDS011;27576;53.366;-1.498;2024-01-30T12:53:00;2.40;;;1.13;;
41897;SDS011;27576;53.366;-1.498;2024-01-30T12:55:26;1.50;;;1.10;;
41897;SDS011;27576;53.366;-1.498;2024-01-30T12:57:53;1.00;;;1.00;;
41897;SDS011;27576;53.366;-1.498;2024-01-30T13:00:19;0.80;;;0.80;;
41897;SDS011;27576;53.366;-1.498;2024-01-30T13:02:45;0.68;;;0.68;;
41897;SDS011;27576;53.366;-1.498;2024-01-30T13:05:10;1.10;;;1.00;;
41897;SDS011;27576;53.366;-1.498;2024-01-30T13:07:36;0.88;;;0.85;;
41897;SDS011;27576;53.366;-1.498;2024-01-30T13:10:02;0.55;;;0.55;;
41897;SDS011;27576;53.366;-1.498;2024-01-30T13:12:29;0.98;;;0.93;;
41897;SDS011;27576;53.366;-1.498;2024-01-30T13:14:54;0.57;;;0.57;;
41897;SDS011;27576;53.366;-1.498;2024-01-30T13:17:20;0.70;;;0.70;;
41897;SDS011;27576;53.366;-1.498;2024-01-30T13:19:45;0.60;;;0.60;;
41897;SDS011;27576;53.366;-1.498;2024-01-30T13:22:11;0.50;;;0.50;;
41897;SDS011;27576;53.366;-1.498;2024-01-30T13:24:36;0.80;;;0.73;;
41897;SDS011;27576;53.366;-1.498;2024-01-30T13:27:02;0.70;;;0.70;;
41897;SDS011;27576;53.366;-1.498;2024-01-30T13:29:30;1.45;;;0.70;;
41897;SDS011;27576;53.366;-1.498;2024-01-30T13:31:56;1.13;;;0.70;;
41897;SDS011;27576;53.366;-1.498;2024-01-30T13:34:21;1.10;;;0.52;;
41897;SDS011;27576;53.366;-1.498;2024-01-30T13:36:47;0.65;;;0.60;;
41897;SDS011;27576;53.366;-1.498;2024-01-30T13:39:13;0.30;;;0.30;;
41897;SDS011;27576;53.366;-1.498;2024-01-30T13:41:39;0.50;;;0.40;;
41897;SDS011;27576;53.366;-1.498;2024-01-30T13:44:06;0.30;;;0.30;;
41897;SDS011;27576;53.366;-1.498;2024-01-30T13:46:31;1.33;;;0.60;;
41897;SDS011;27576;53.366;-1.498;2024-01-30T13:48:57;0.60;;;0.50;;
41897;SDS011;27576;53.366;-1.498;2024-01-30T13:51:22;4.20;;;0.50;;
41897;SDS011;27576;53.366;-1.498;2024-01-30T13:53:48;0.65;;;0.50;;
41897;SDS011;27576;53.366;-1.498;2024-01-30T13:56:15;2.78;;;0.63;;
41897;SDS011;27576;53.366;-1.498;2024-01-30T13:58:40;1.58;;;0.82;;
41897;SDS011;27576;53.366;-1.498;2024-01-30T14:01:06;0.85;;;0.50;;
41897;SDS011;27576;53.366;-1.498;2024-01-30T14:03:31;0.85;;;0.50;;
41897;SDS011;27576;53.366;-1.498;2024-01-30T14:05:57;1.80;;;0.70;;
41897;SDS011;27576;53.366;-1.498;2024-01-30T14:08:23;0.55;;;0.55;;
41897;SDS011;27576;53.366;-1.498;2024-01-30T14:10:51;1.73;;;0.57;;
41897;SDS011;27576;53.366;-1.498;2024-01-30T14:13:17;0.50;;;0.50;;
41897;SDS011;27576;53.366;-1.498;2024-01-30T14:15:42;0.50;;;0.50;;
41897;SDS011;27576;53.366;-1.498;2024-01-30T14:18:08;0.70;;;0.57;;
41897;SDS011;27576;53.366;-1.498;2024-01-30T14:20:34;1.65;;;0.60;;
41897;SDS011;27576;53.366;-1.498;2024-01-30T14:22:59;1.85;;;0.70;;
41897;SDS011;27576;53.366;-1.498;2024-01-30T14:25:25;1.48;;;0.60;;